Time;durP1;ratioP1;P1;durP2;ratioP2;P2;SDS_P1;SDS_P2;PMS_P1;PMS_P2;Temp;Humidity;BMP_temperature;BMP_pressure;BME280_temperature;BME280_humidity;BME280_pressure;Samples;Min_cycle;Max_cycle;Signal;HPM_P1;HPM_P2
2024/01/26 00:00:17;;;;;;;3.10;1.73;;;;;;;-4.82;100.00;99863.41;6188851;23;20442;-56
2024/01/26 00:02:48;;;;;;;4.22;1.67;;;;;;;-4.77;100.00;99859.34;6204615;23;20028;-58
2024/01/26 00:05:20;;;;;;;2.30;1.85;;;;;;;-4.74;100.00;99862.78;6189684;23;20024;-58
2024/01/26 00:07:51;;;;;;;2.50;1.63;;;;;;;-4.71;100.00;99874.00;6204016;23;20024;-58
2024/01/26 00:10:21;;;;;;;1.85;1.50;;;;;;;-4.69;100.00;99876.56;6189311;23;20062;-58
2024/01/26 00:12:52;;;;;;;3.95;1.90;;;;;;;-4.65;100.00;99870.81;6204375;23;20020;-59
2024/01/26 00:15:23;;;;;;;4.20;1.85;;;;;;;-4.51;100.00;99872.19;6189221;23;20622;-56
2024/01/26 00:17:54;;;;;;;2.72;1.70;;;;;;;-4.41;100.00;99874.28;6204357;23;20093;-56
2024/01/26 00:20:26;;;;;;;4.03;1.40;;;;;;;-4.49;100.00;99870.59;6189992;23;20024;-58
2024/01/26 00:22:57;;;;;;;3.13;1.67;;;;;;;-4.39;100.00;99879.44;6204019;23;20511;-58
2024/01/26 00:25:27;;;;;;;1.80;1.58;;;;;;;-4.30;100.00;99876.34;6189337;23;20083;-58
2024/01/26 00:27:57;;;;;;;3.13;1.50;;;;;;;-4.24;100.00;99884.22;6203594;23;20072;-58
2024/01/26 00:30:28;;;;;;;1.45;1.35;;;;;;;-4.24;100.00;99872.34;6188772;23;20032;-56
2024/01/26 00:32:59;;;;;;;2.35;1.38;;;;;;;-4.27;100.00;99886.66;6203614;23;20034;-58
2024/01/26 00:35:31;;;;;;;1.88;1.20;;;;;;;-4.34;100.00;99888.13;6189500;23;20099;-57
2024/01/26 00:38:02;;;;;;;1.40;1.10;;;;;;;-4.35;100.00;99879.59;6203609;23;20024;-57
2024/01/26 00:40:32;;;;;;;1.50;1.40;;;;;;;-4.38;100.00;99881.16;6189699;23;20029;-58
2024/01/26 00:43:02;;;;;;;2.13;1.20;;;;;;;-4.35;100.00;99889.78;6204219;23;20028;-58
2024/01/26 00:45:33;;;;;;;7.53;1.80;;;;;;;-4.31;100.00;99884.84;6189639;23;20521;-56
2024/01/26 00:48:04;;;;;;;1.92;1.73;;;;;;;-4.31;100.00;99884.84;6203892;23;20471;-57
2024/01/26 00:50:36;;;;;;;1.30;1.20;;;;;;;-4.28;100.00;99890.03;6189740;23;20381;-58
2024/01/26 00:53:06;;;;;;;2.55;1.73;;;;;;;-4.18;100.00;99907.41;6204681;23;20358;-57
2024/01/26 00:55:37;;;;;;;1.50;1.35;;;;;;;-4.09;100.00;99889.91;6187858;23;20031;-56
2024/01/26 00:58:07;;;;;;;1.40;1.30;;;;;;;-4.12;100.00;99882.13;6203572;23;20024;-56
2024/01/26 01:00:38;;;;;;;1.27;1.20;;;;;;;-4.04;100.00;99890.94;6188930;23;20081;-56
2024/01/26 01:03:09;;;;;;;2.78;1.40;;;;;;;-3.97;100.00;99905.66;6205658;23;20043;-58
2024/01/26 01:05:42;;;;;;;1.95;1.40;;;;;;;-3.94;100.00;99903.22;6187971;23;20020;-58
2024/01/26 01:08:31;;;;;;;3.05;1.40;;;;;;;-3.73;100.00;99904.78;6204415;23;20020;-54
2024/01/26 01:11:01;;;;;;;1.75;1.58;;;;;;;-3.67;100.00;99907.53;6202978;23;20020;-57
2024/01/26 01:13:31;;;;;;;2.65;1.50;;;;;;;-3.68;100.00;99910.91;6188923;23;20107;-57
2024/01/26 01:16:02;;;;;;;1.70;1.20;;;;;;;-3.74;100.00;99905.63;6203295;23;20099;-57
2024/01/26 01:18:32;;;;;;;1.90;1.40;;;;;;;-3.70;100.00;99902.31;6188754;23;20626;-57
2024/01/26 01:21:06;;;;;;;2.88;1.52;;;;;;;-3.56;100.00;99906.25;6203778;23;20020;-56
2024/01/26 01:23:37;;;;;;;4.70;2.45;;;;;;;-3.54;100.00;99909.72;6189357;23;20024;-56
2024/01/26 01:26:08;;;;;;;3.42;1.40;;;;;;;-3.49;100.00;99908.19;6203008;23;20035;-56
2024/01/26 01:28:38;;;;;;;2.25;1.50;;;;;;;-3.49;100.00;99902.22;6187784;23;20032;-57
2024/01/26 01:31:10;;;;;;;4.05;1.77;;;;;;;-3.53;100.00;99901.22;6202552;23;20432;-57
2024/01/26 01:33:40;;;;;;;2.03;1.50;;;;;;;-3.71;100.00;99900.59;6187679;23;20024;-57
2024/01/26 01:36:12;;;;;;;4.50;1.60;;;;;;;-3.78;100.00;99906.31;6202951;23;20047;-56
2024/01/26 01:38:44;;;;;;;2.70;1.33;;;;;;;-3.77;100.00;99914.03;6187757;23;20054;-56
2024/01/26 01:41:14;;;;;;;2.75;1.67;;;;;;;-3.84;100.00;99908.63;6187690;23;20024;-56
2024/01/26 01:43:46;;;;;;;1.83;1.60;;;;;;;-3.82;100.00;99912.09;6202981;23;20091;-57
2024/01/26 01:46:16;;;;;;;1.70;1.42;;;;;;;-3.87;100.00;99903.41;6187845;23;20024;-57
2024/01/26 01:48:47;;;;;;;1.95;1.40;;;;;;;-3.86;100.00;99907.72;6203050;23;20020;-54
2024/01/26 01:51:19;;;;;;;2.47;1.70;;;;;;;-3.87;100.00;99903.41;6187707;23;20099;-55
2024/01/26 01:53:51;;;;;;;1.85;1.50;;;;;;;-3.92;100.00;99901.59;6202936;23;20016;-56
2024/01/26 01:56:24;;;;;;;1.88;1.20;;;;;;;-3.86;100.00;99905.16;6188645;23;20016;-55
2024/01/26 01:58:56;;;;;;;2.25;1.48;;;;;;;-3.82;100.00;99904.44;6202975;23;20051;-57
2024/01/26 02:01:26;;;;;;;2.00;1.30;;;;;;;-3.95;100.00;99896.34;6187786;23;20808;-55
2024/01/26 02:04:01;;;;;;;1.67;1.45;;;;;;;-3.80;100.00;99920.69;6201590;23;20123;-55
2024/01/26 02:06:33;;;;;;;9.82;1.40;;;;;;;-3.80;100.00;99910.47;6188391;23;20028;-53
2024/01/26 02:09:04;;;;;;;2.80;1.40;;;;;;;-3.84;100.00;99908.63;6203047;23;20645;-54
2024/01/26 02:11:34;;;;;;;2.00;1.40;;;;;;;-3.85;100.00;99906.91;6188665;23;20024;-56
2024/01/26 02:14:05;;;;;;;2.25;1.20;;;;;;;-3.91;100.00;99916.06;6203177;23;20028;-55
2024/01/26 02:16:35;;;;;;;3.67;1.73;;;;;;;-3.88;100.00;99911.91;6187966;23;20664;-56
2024/01/26 02:19:06;;;;;;;3.00;1.40;;;;;;;-4.03;100.00;99892.66;6202973;23;20119;-54
2024/01/26 02:21:38;;;;;;;3.10;1.58;;;;;;;-3.93;100.00;99920.25;6188204;23;20078;-51
2024/01/26 02:24:10;;;;;;;1.80;1.30;;;;;;;-3.93;100.00;99899.84;6202733;23;20510;-55
2024/01/26 02:26:41;;;;;;;2.90;1.63;;;;;;;-3.86;100.00;99906.03;6187918;23;20452;-55
2024/01/26 02:29:11;;;;;;;2.92;1.50;;;;;;;-3.77;100.00;99908.03;6203654;23;20028;-55
2024/01/26 02:31:42;;;;;;;2.78;1.70;;;;;;;-3.77;100.00;99931.00;6187779;23;20501;-57
2024/01/26 02:34:13;;;;;;;1.30;1.17;;;;;;;-3.74;100.00;99910.72;6201138;23;20028;-57
2024/01/26 02:36:44;;;;;;;3.58;1.38;;;;;;;-3.73;100.00;99912.44;6203937;23;20493;-57
2024/01/26 02:39:16;;;;;;;2.80;1.70;;;;;;;-3.66;100.00;99909.28;6187970;23;20024;-57
2024/01/26 02:41:46;;;;;;;2.65;1.48;;;;;;;-3.66;100.00;99913.53;6204163;23;20020;-56
2024/01/26 02:44:17;;;;;;;2.08;1.48;;;;;;;-3.65;100.00;99916.13;6188643;23;20020;-56
2024/01/26 02:46:48;;;;;;;1.50;1.40;;;;;;;-3.70;100.00;99904.88;6202639;23;20087;-58
2024/01/26 02:49:18;;;;;;;3.00;1.60;;;;;;;-3.76;100.00;99902.13;6187806;23;20020;-56
2024/01/26 02:51:49;;;;;;;3.35;1.60;;;;;;;-3.71;100.00;99910.81;6202817;23;20111;-57
2024/01/26 02:54:21;;;;;;;2.67;1.58;;;;;;;-3.64;100.00;99912.78;6187809;23;20051;-56
2024/01/26 02:56:53;;;;;;;2.33;1.48;;;;;;;-3.62;100.00;99907.69;6202639;23;20023;-57
2024/01/26 02:59:23;;;;;;;2.08;1.55;;;;;;;-3.62;100.00;99915.34;6188009;23;20541;-55
2024/01/26 03:01:53;;;;;;;2.67;1.75;;;;;;;-3.60;100.00;99909.50;6202671;23;20103;-59
2024/01/26 03:04:24;;;;;;;1.40;1.30;;;;;;;-3.50;100.00;99909.00;6187858;23;20020;-58
2024/01/26 03:06:55;;;;;;;4.88;1.65;;;;;;;-3.51;100.00;99920.03;6202152;23;20020;-60
2024/01/26 03:09:28;;;;;;;5.50;1.88;;;;;;;-3.58;100.00;99907.88;6187160;23;20028;-59
2024/01/26 03:11:58;;;;;;;2.55;1.52;;;;;;;-3.58;100.00;99912.97;6202815;23;20059;-59
2024/01/26 03:14:30;;;;;;;2.65;1.50;;;;;;;-3.57;100.00;99919.84;6187296;23;20024;-57
2024/01/26 03:17:00;;;;;;;1.95;1.42;;;;;;;-3.53;100.00;99921.66;6201585;23;20523;-59
2024/01/26 03:19:35;;;;;;;2.08;1.40;;;;;;;-3.50;100.00;99915.78;6187172;23;20028;-58
2024/01/26 03:22:05;;;;;;;3.42;1.55;;;;;;;-3.66;100.00;99914.41;6202587;23;20107;-56
2024/01/26 03:24:37;;;;;;;1.33;1.23;;;;;;;-3.63;100.00;99929.81;6187804;23;20035;-58
2024/01/26 03:27:08;;;;;;;2.17;1.40;;;;;;;-3.57;100.00;99929.16;6202035;23;20020;-57
2024/01/26 03:29:39;;;;;;;2.40;1.58;;;;;;;-3.59;100.00;99926.56;6188050;23;20032;-58
2024/01/26 03:32:09;;;;;;;1.20;1.10;;;;;;;-3.63;100.00;99929.81;6202904;23;20020;-56
2024/01/26 03:34:39;;;;;;;2.58;1.58;;;;;;;-3.63;100.00;99940.03;6187019;23;20020;-58
2024/01/26 03:37:10;;;;;;;2.65;1.30;;;;;;;-3.64;100.00;99933.19;6202521;23;20063;-57
2024/01/26 03:39:42;;;;;;;2.88;1.50;;;;;;;-3.71;100.00;99931.25;6186866;23;20070;-58
2024/01/26 03:42:12;;;;;;;3.15;1.50;;;;;;;-3.62;100.00;99940.91;6197395;23;20024;-58
2024/01/26 03:44:43;;;;;;;2.60;1.50;;;;;;;-3.58;100.00;99933.41;6202594;23;20330;-57
2024/01/26 03:47:14;;;;;;;3.33;1.55;;;;;;;-3.54;100.00;99934.41;6187655;23;20020;-57
2024/01/26 03:49:45;;;;;;;1.73;1.63;;;;;;;-3.48;100.00;99930.34;6202505;23;20047;-58
2024/01/26 03:52:16;;;;;;;3.28;1.40;;;;;;;-3.56;100.00;99921.56;6187916;23;20019;-57
2024/01/26 03:54:48;;;;;;;3.05;1.77;;;;;;;-3.55;100.00;99933.50;6201844;23;20036;-56
2024/01/26 03:57:18;;;;;;;3.50;1.70;;;;;;;-3.53;100.00;99941.22;6187611;23;20028;-56
2024/01/26 03:59:49;;;;;;;2.85;1.60;;;;;;;-3.56;100.00;99936.88;6202611;23;20082;-58
2024/01/26 04:02:19;;;;;;;2.47;1.60;;;;;;;-3.60;100.00;99950.34;6189958;23;20099;-57
2024/01/26 04:04:50;;;;;;;1.50;1.40;;;;;;;-3.57;100.00;99949.59;6204486;23;20028;-58
2024/01/26 04:07:20;;;;;;;3.95;1.40;;;;;;;-3.56;100.00;99952.22;6189507;23;20016;-56
2024/01/26 04:09:52;;;;;;;1.92;1.48;;;;;;;-3.60;100.00;99955.47;6203498;23;20085;-58
2024/01/26 04:12:23;;;;;;;3.88;1.58;;;;;;;-3.59;100.00;99952.09;6189243;23;20027;-58
2024/01/26 04:14:53;;;;;;;4.95;1.88;;;;;;;-3.58;100.00;99958.94;6203663;23;20089;-56
2024/01/26 04:17:24;;;;;;;3.53;1.67;;;;;;;-3.61;100.00;99940.97;6189605;23;20024;-58
2024/01/26 04:19:54;;;;;;;2.10;1.35;;;;;;;-3.52;100.00;99959.19;6203942;23;20460;-58
2024/01/26 04:22:25;;;;;;;2.95;1.73;;;;;;;-3.48;100.00;99970.34;6189231;23;20059;-57
2024/01/26 04:24:57;;;;;;;2.88;1.50;;;;;;;-3.65;100.00;99936.56;6203912;23;20030;-59
2024/01/26 04:27:27;;;;;;;2.90;1.70;;;;;;;-3.51;100.00;99971.13;6189146;23;20063;-60
2024/01/26 04:29:58;;;;;;;2.95;1.67;;;;;;;-3.63;100.00;99975.78;6203582;23;20016;-57
2024/01/26 04:32:29;;;;;;;1.67;1.35;;;;;;;-3.64;100.00;99968.94;6190076;23;20028;-57
2024/01/26 04:35:00;;;;;;;2.60;1.63;;;;;;;-3.59;100.00;99981.88;6204075;23;20016;-58
2024/01/26 04:37:30;;;;;;;2.63;1.50;;;;;;;-3.56;100.00;99982.84;6188775;23;20028;-57
2024/01/26 04:40:02;;;;;;;2.17;1.30;;;;;;;-3.91;100.00;99949.25;6203409;23;20078;-58
2024/01/26 04:42:33;;;;;;;4.20;1.80;;;;;;;-3.64;100.00;99997.03;6189381;23;20016;-58
2024/01/26 04:45:03;;;;;;;3.17;1.80;;;;;;;-3.64;100.00;99999.59;6203920;23;20043;-58
2024/01/26 04:47:34;;;;;;;3.25;1.77;;;;;;;-3.70;100.00;100004.47;6189470;23;20378;-56
2024/01/26 04:50:05;;;;;;;2.78;1.42;;;;;;;-3.76;100.00;99997.47;6204015;23;20078;-58
2024/01/26 04:52:35;;;;;;;8.95;1.80;;;;;;;-3.74;100.00;100000.09;6188657;23;20102;-58
2024/01/26 04:55:12;;;;;;;4.07;1.65;;;;;;;-3.73;100.00;100012.00;6203789;23;20157;-57
2024/01/26 04:57:42;;;;;;;1.35;1.23;;;;;;;-3.94;100.00;100010.41;6188186;23;20020;-57
2024/01/26 05:00:13;;;;;;;3.05;1.40;;;;;;;-3.84;100.00;100020.94;6196075;23;20024;-57
2024/01/26 05:02:44;;;;;;;4.97;1.73;;;;;;;-3.83;100.00;100027.81;6203848;23;20090;-56
2024/01/26 05:05:15;;;;;;;5.50;1.83;;;;;;;-3.98;100.00;100016.19;6189269;23;20098;-58
2024/01/26 05:07:45;;;;;;;2.13;1.35;;;;;;;-3.90;100.00;100042.88;6204961;23;20028;-56
2024/01/26 05:10:18;;;;;;;3.75;1.65;;;;;;;-3.90;100.00;100027.56;6188634;23;20372;-57
2024/01/26 05:12:48;;;;;;;1.73;1.33;;;;;;;-3.93;100.00;100037.66;6202473;23;20020;-56
2024/01/26 05:15:18;;;;;;;7.45;1.98;;;;;;;-4.31;100.00;99987.72;6187490;23;20102;-58
2024/01/26 05:17:49;;;;;;;5.20;1.58;;;;;;;-4.03;100.00;100056.00;6203272;23;20142;-56
2024/01/26 05:20:19;;;;;;;4.32;1.70;;;;;;;-4.04;100.00;100044.06;6188414;23;20038;-59
2024/01/26 05:22:50;;;;;;;2.80;1.60;;;;;;;-4.04;100.00;100054.25;6203217;23;20102;-57
2024/01/26 05:25:22;;;;;;;3.15;1.60;;;;;;;-4.05;100.00;100052.50;6187674;23;20020;-57
2024/01/26 05:27:52;;;;;;;3.20;1.70;;;;;;;-4.09;100.00;100049.78;6202780;23;20027;-57
2024/01/26 05:30:23;;;;;;;3.78;1.70;;;;;;;-4.09;100.00;100059.97;6162077;23;20024;-58
2024/01/26 05:32:54;;;;;;;4.05;2.33;;;;;;;-4.05;100.00;100077.16;6202965;23;20086;-57
2024/01/26 05:35:24;;;;;;;3.03;1.60;;;;;;;-4.05;100.00;100067.81;6188201;23;20863;-57
2024/01/26 05:37:55;;;;;;;3.08;1.55;;;;;;;-4.04;100.00;100073.78;6203508;23;20484;-59
2024/01/26 05:40:27;;;;;;;5.00;1.77;;;;;;;-4.07;100.00;100074.53;6187977;23;20449;-57
2024/01/26 05:42:59;;;;;;;2.10;1.50;;;;;;;-4.11;100.00;100072.69;6203464;23;20034;-58
2024/01/26 05:45:29;;;;;;;2.70;1.73;;;;;;;-4.11;100.00;100072.69;6188166;23;20350;-57
2024/01/26 05:48:00;;;;;;;4.68;1.80;;;;;;;-4.08;100.00;100082.16;6203099;23;20715;-57
2024/01/26 05:50:30;;;;;;;2.97;1.60;;;;;;;-4.13;100.00;100079.41;6188674;23;20317;-57
2024/01/26 05:53:02;;;;;;;3.50;1.52;;;;;;;-4.18;100.00;100086.88;6203061;23;20736;-58
2024/01/26 05:55:34;;;;;;;2.95;1.65;;;;;;;-4.15;100.00;100094.66;6188469;23;20077;-60
2024/01/26 05:58:05;;;;;;;9.50;2.22;;;;;;;-4.20;100.00;100097.84;6203314;23;20089;-60
2024/01/26 06:00:35;;;;;;;1.98;1.42;;;;;;;-4.22;100.00;100099.44;6188571;23;20078;-59
2024/01/26 06:03:06;;;;;;;2.78;1.85;;;;;;;-4.29;100.00;100097.47;6203492;23;20503;-56
2024/01/26 06:05:36;;;;;;;4.30;1.90;;;;;;;-4.29;100.00;100102.56;6188860;23;20028;-57
2024/01/26 06:08:07;;;;;;;6.78;2.00;;;;;;;-4.25;100.00;100104.44;6204021;23;20098;-57
2024/01/26 06:10:39;;;;;;;2.85;1.60;;;;;;;-4.24;100.00;100108.72;6188339;23;20024;-55
2024/01/26 06:13:10;;;;;;;2.55;1.80;;;;;;;-4.30;100.00;100111.03;6203219;23;20698;-58
2024/01/26 06:15:41;;;;;;;3.63;1.90;;;;;;;-4.26;100.00;100123.13;6187003;23;20031;-57
2024/01/26 06:18:11;;;;;;;2.45;1.77;;;;;;;-4.34;100.00;100121.13;6202886;23;20024;-58
2024/01/26 06:20:42;;;;;;;3.30;1.65;;;;;;;-4.34;100.00;100131.31;6187843;23;20034;-57
2024/01/26 06:23:12;;;;;;;11.45;2.13;;;;;;;-4.37;100.00;100131.22;6198535;23;20020;-57
2024/01/26 06:25:45;;;;;;;2.50;1.70;;;;;;;-4.38;100.00;100139.66;6202215;23;20024;-55
2024/01/26 06:28:15;;;;;;;1.98;1.60;;;;;;;-4.43;100.00;100136.03;6188352;23;20591;-58
2024/01/26 06:30:46;;;;;;;6.97;2.67;;;;;;;-4.46;100.00;100138.47;6201942;23;20070;-56
2024/01/26 06:33:16;;;;;;;4.95;2.03;;;;;;;-4.51;100.00;100142.50;6187936;23;20051;-58
2024/01/26 06:35:47;;;;;;;2.13;1.52;;;;;;;-4.57;100.00;100153.31;6202465;23;20044;-59
2024/01/26 06:38:18;;;;;;;3.65;1.75;;;;;;;-4.60;100.00;100152.31;6187738;23;20023;-56
2024/01/26 06:40:50;;;;;;;3.17;2.20;;;;;;;-4.65;100.00;100158.88;6202460;23;20098;-58
2024/01/26 06:43:20;;;;;;;6.53;2.30;;;;;;;-4.68;100.00;100158.75;6187399;23;20024;-58
2024/01/26 06:45:50;;;;;;;4.82;2.33;;;;;;;-4.70;100.00;100160.38;6202275;23;20027;-59
2024/01/26 06:48:21;;;;;;;6.78;2.13;;;;;;;-4.71;100.00;100168.84;6188027;23;20032;-59
2024/01/26 06:50:51;;;;;;;4.18;2.03;;;;;;;-4.74;100.00;100164.47;6202207;23;20074;-57
2024/01/26 06:53:22;;;;;;;4.57;2.20;;;;;;;-4.73;100.00;100165.34;6188271;23;20350;-56
2024/01/26 06:55:55;;;;;;;4.13;2.08;;;;;;;-4.77;100.00;100170.31;6202602;23;20090;-58
2024/01/26 06:58:25;;;;;;;3.65;2.08;;;;;;;-4.78;100.00;100178.75;6187467;23;20016;-58
2024/01/26 07:00:55;;;;;;;3.63;1.90;;;;;;;-4.82;100.00;100182.00;6202244;23;20472;-58
2024/01/26 07:03:26;;;;;;;2.92;1.33;;;;;;;-4.84;100.00;100183.59;6187609;23;20024;-56
2024/01/26 07:05:56;;;;;;;2.95;1.85;;;;;;;-4.84;100.00;100182.69;6202479;23;20028;-58
2024/01/26 07:08:27;;;;;;;3.28;2.35;;;;;;;-4.86;100.00;100182.66;6188556;23;20715;-58
2024/01/26 07:10:59;;;;;;;2.78;1.70;;;;;;;-4.88;100.00;100194.44;6202661;23;20109;-56
2024/01/26 07:13:29;;;;;;;4.10;2.30;;;;;;;-4.89;100.00;100194.38;6186925;23;20055;-56
2024/01/26 07:16:00;;;;;;;1.50;1.40;;;;;;;-4.90;100.00;100198.59;6202245;23;20026;-58
2024/01/26 07:18:31;;;;;;;4.60;1.73;;;;;;;-4.93;100.00;100193.38;6187661;23;20063;-57
2024/01/26 07:21:08;;;;;;;4.07;1.75;;;;;;;-4.91;100.00;100207.06;6202134;23;20059;-57
2024/01/26 07:23:41;;;;;;;5.72;2.10;;;;;;;-4.95;100.00;100210.25;6187563;23;20031;-56
2024/01/26 07:26:19;;;;;;;7.68;3.25;;;;;;;-4.96;100.00;100218.72;6202742;23;20020;-56
2024/01/26 07:28:50;;;;;;;3.67;2.03;;;;;;;-4.98;100.00;100210.13;6186895;23;20020;-55
2024/01/26 07:31:21;;;;;;;2.13;1.70;;;;;;;-4.98;100.00;100215.22;6187312;23;20016;-57
2024/01/26 07:33:51;;;;;;;7.90;2.20;;;;;;;-4.99;100.00;100229.66;6202095;23;20020;-58
2024/01/26 07:36:22;;;;;;;5.22;2.25;;;;;;;-5.00;100.00;100227.88;6188792;23;20024;-58
2024/01/26 07:38:52;;;;;;;3.63;1.85;;;;;;;-5.00;100.00;100232.13;6204127;23;20095;-56
2024/01/26 07:41:24;;;;;;;4.45;1.58;;;;;;;-5.01;100.00;100230.38;6189749;23;20023;-59
2024/01/26 07:43:55;;;;;;;3.40;1.65;;;;;;;-5.04;100.00;100232.78;6204077;23;20027;-58
2024/01/26 07:46:25;;;;;;;6.47;2.20;;;;;;;-5.05;100.00;100238.69;6189564;23;20027;-58
2024/01/26 07:48:56;;;;;;;2.35;1.70;;;;;;;-5.13;100.00;100232.38;6204209;23;20020;-57
2024/01/26 07:51:27;;;;;;;6.93;2.83;;;;;;;-5.03;100.00;100247.28;6189308;23;20115;-58
2024/01/26 07:53:57;;;;;;;11.65;2.20;;;;;;;-5.02;100.00;100249.00;6203671;23;20082;-57
2024/01/26 07:56:29;;;;;;;6.80;2.30;;;;;;;-5.02;100.00;100251.56;6190170;23;20211;-57
2024/01/26 07:59:00;;;;;;;3.95;2.03;;;;;;;-5.04;100.00;100253.16;6204075;23;20024;-57
2024/01/26 08:01:31;;;;;;;3.75;2.13;;;;;;;-5.03;100.00;100263.44;6189105;23;20024;-56
2024/01/26 08:04:02;;;;;;;5.57;2.10;;;;;;;-5.00;100.00;100267.78;6203680;23;20095;-58
2024/01/26 08:06:33;;;;;;;7.18;2.08;;;;;;;-5.01;100.00;100260.97;6189846;23;20072;-58
2024/01/26 08:09:05;;;;;;;3.38;1.65;;;;;;;-5.06;100.00;100259.88;6203778;23;20050;-57
2024/01/26 08:11:37;;;;;;;4.68;2.33;;;;;;;-5.00;100.00;100272.88;6190013;23;20054;-59
2024/01/26 08:14:07;;;;;;;2.30;1.70;;;;;;;-5.01;100.00;100276.25;6204675;23;20024;-56
2024/01/26 08:16:38;;;;;;;5.65;2.28;;;;;;;-5.01;100.00;100276.25;6189263;23;20034;-56
2024/01/26 08:19:08;;;;;;;3.22;1.95;;;;;;;-5.02;100.00;100284.69;6204013;23;20086;-56
2024/01/26 08:21:40;;;;;;;3.13;1.52;;;;;;;-5.01;100.00;100297.50;6188081;23;20028;-57
2024/01/26 08:24:11;;;;;;;4.55;1.80;;;;;;;-5.01;100.00;100296.63;6205451;23;20020;-58
2024/01/26 08:26:44;;;;;;;4.90;2.25;;;;;;;-5.01;100.00;100301.75;6189741;23;20457;-57
2024/01/26 08:29:15;;;;;;;7.22;2.17;;;;;;;-5.01;100.00;100306.84;6189749;23;20022;-58
2024/01/26 08:31:45;;;;;;;8.75;2.72;;;;;;;-5.01;100.00;100311.94;6203668;23;20043;-59
2024/01/26 08:34:18;;;;;;;5.95;2.00;;;;;;;-5.11;100.00;100297.03;6189043;23;20024;-56
2024/01/26 08:36:49;;;;;;;4.20;2.38;;;;;;;-5.04;100.00;100307.56;6203483;23;20150;-58
2024/01/26 08:39:20;;;;;;;7.95;2.20;;;;;;;-5.03;100.00;100300.78;6188249;23;20020;-56
2024/01/26 08:41:52;;;;;;;3.20;1.90;;;;;;;-5.03;100.00;100313.53;6203259;23;20036;-58
2024/01/26 08:44:23;;;;;;;5.28;2.20;;;;;;;-5.01;100.00;100317.03;6189210;23;20020;-58
2024/01/26 08:46:54;;;;;;;5.00;2.10;;;;;;;-5.01;100.00;100324.66;6203242;23;20142;-59
2024/01/26 08:49:24;;;;;;;4.95;2.50;;;;;;;-5.02;100.00;100335.66;6188300;23;20070;-57
2024/01/26 08:51:57;;;;;;;4.28;1.85;;;;;;;-5.02;100.00;100325.44;6202922;23;20028;-56
2024/01/26 08:54:28;;;;;;;3.30;1.77;;;;;;;-5.01;100.00;100322.13;6188471;23;20926;-59
2024/01/26 08:57:00;;;;;;;9.70;2.78;;;;;;;-5.02;100.00;100340.75;6203063;23;20054;-58
2024/01/26 08:59:31;;;;;;;5.35;1.65;;;;;;;-5.00;100.00;100329.81;6189102;23;20043;-59
2024/01/26 09:02:02;;;;;;;3.92;1.88;;;;;;;-4.99;100.00;100339.22;6203079;23;20111;-57
2024/01/26 09:04:33;;;;;;;4.55;2.15;;;;;;;-4.99;100.00;100335.81;6188540;23;20018;-57
2024/01/26 09:07:04;;;;;;;6.10;1.98;;;;;;;-4.99;100.00;100336.69;6203548;23;20035;-57
2024/01/26 09:09:40;;;;;;;4.18;1.77;;;;;;;-5.00;100.00;100339.16;6163986;23;20532;-59
2024/01/26 09:12:12;;;;;;;3.88;1.70;;;;;;;-5.02;100.00;100330.56;6203551;23;20024;-57
2024/01/26 09:14:43;;;;;;;5.95;1.83;;;;;;;-5.02;100.00;100340.75;6187523;23;20016;-59
2024/01/26 09:17:16;;;;;;;1.70;1.58;;;;;;;-5.09;100.00;100333.59;6188764;23;20016;-58
2024/01/26 09:19:47;;;;;;;6.07;2.00;;;;;;;-5.05;100.00;100336.38;6203512;23;20062;-57
2024/01/26 09:22:18;;;;;;;5.15;1.95;;;;;;;-5.05;100.00;100345.69;6188244;23;20086;-60
2024/01/26 09:24:49;;;;;;;7.60;3.08;;;;;;;-5.07;100.00;100337.97;6203169;23;20016;-57
2024/01/26 09:27:21;;;;;;;3.85;1.92;;;;;;;-5.06;100.00;100338.88;6186645;23;20051;-58
2024/01/26 09:29:53;;;;;;;4.82;1.92;;;;;;;-5.05;100.00;100355.88;6201836;23;20102;-58
2024/01/26 09:32:23;;;;;;;1.80;1.63;;;;;;;-5.09;100.00;100359.09;6188116;23;20099;-58
2024/01/26 09:34:55;;;;;;;5.43;1.83;;;;;;;-5.12;100.00;100358.94;6202920;23;20035;-57
2024/01/26 09:37:26;;;;;;;4.10;2.20;;;;;;;-5.13;100.00;100347.03;6187765;23;20107;-57
2024/01/26 09:39:57;;;;;;;5.93;2.22;;;;;;;-5.13;100.00;100367.41;6202506;23;20024;-59
2024/01/26 09:42:30;;;;;;;1.92;1.58;;;;;;;-5.15;100.00;100364.78;6187931;23;20897;-56
2024/01/26 09:45:03;;;;;;;3.42;1.58;;;;;;;-5.13;100.00;100364.84;6201746;23;20035;-59
2024/01/26 09:47:37;;;;;;;4.68;2.13;;;;;;;-5.15;100.00;100363.91;6188866;23;20022;-59
2024/01/26 09:50:08;;;;;;;4.95;2.05;;;;;;;-5.17;100.00;100374.00;6203298;23;20023;-56
2024/01/26 09:52:40;;;;;;;4.88;1.60;;;;;;;-5.22;100.00;100373.81;6187310;23;20451;-57
2024/01/26 09:55:14;;;;;;;3.08;1.77;;;;;;;-5.23;100.00;100389.88;6202168;23;20070;-58
2024/01/26 09:57:47;;;;;;;5.82;2.30;;;;;;;-5.24;100.00;100375.41;6186087;23;20049;-58
2024/01/26 10:00:18;;;;;;;5.25;2.10;;;;;;;-5.24;100.00;100388.13;6187183;23;20051;-59
2024/01/26 10:02:50;;;;;;;3.45;1.90;;;;;;;-5.27;100.00;100390.50;6202215;23;20055;-57
2024/01/26 10:05:21;;;;;;;4.20;2.08;;;;;;;-5.28;100.00;100393.88;6188106;23;20082;-58
2024/01/26 10:07:53;;;;;;;7.20;2.70;;;;;;;-5.32;100.00;100391.97;6202803;23;20020;-58
2024/01/26 10:10:25;;;;;;;2.33;1.85;;;;;;;-5.33;100.00;100400.41;6186921;23;20016;-59
2024/01/26 10:12:57;;;;;;;5.22;1.63;;;;;;;-5.33;100.00;100400.41;6202780;23;20107;-59
2024/01/26 10:15:29;;;;;;;4.72;2.03;;;;;;;-5.36;100.00;100397.72;6187671;23;20179;-58
2024/01/26 10:18:03;;;;;;;2.35;1.83;;;;;;;-5.39;100.00;100405.22;6202541;23;20504;-56
2024/01/26 10:20:34;;;;;;;3.08;1.70;;;;;;;-5.45;100.00;100402.34;6188892;23;20020;-58
2024/01/26 10:23:06;;;;;;;7.43;2.17;;;;;;;-5.49;100.00;100408.97;6203274;23;20020;-57
2024/01/26 10:25:37;;;;;;;7.30;2.45;;;;;;;-5.49;100.00;100408.06;6188058;23;20024;-59
2024/01/26 10:28:14;;;;;;;3.72;1.70;;;;;;;-5.48;100.00;100404.75;6202741;23;20023;-57
2024/01/26 10:30:45;;;;;;;2.80;1.58;;;;;;;-5.48;100.00;100404.75;6186794;23;20023;-59
2024/01/26 10:33:16;;;;;;;2.70;1.58;;;;;;;-5.50;100.00;100406.34;6188071;23;20027;-59
2024/01/26 10:35:48;;;;;;;2.50;1.63;;;;;;;-5.53;100.00;100416.38;6202081;23;20023;-58
2024/01/26 10:38:19;;;;;;;2.75;2.33;;;;;;;-5.51;100.00;100404.59;6188455;23;20024;-59
2024/01/26 10:40:54;;;;;;;7.35;2.45;;;;;;;-5.79;100.00;100362.50;6202283;22;20027;-58
2024/01/26 10:43:26;;;;;;;2.50;1.60;;;;;;;-5.53;100.00;100412.16;6187301;23;20409;-57
2024/01/26 10:45:59;;;;;;;3.78;1.65;;;;;;;-6.31;100.00;100283.56;6202412;23;20464;-58
2024/01/26 10:48:31;;;;;;;3.13;1.75;;;;;;;-5.52;100.00;100418.13;6188097;23;20094;-58
2024/01/26 10:51:04;;;;;;;6.55;1.65;;;;;;;-5.56;100.00;100422.19;6202390;23;20020;-59
2024/01/26 10:53:36;;;;;;;4.30;1.83;;;;;;;-5.61;100.00;100422.75;6188909;23;20028;-60
2024/01/26 10:56:08;;;;;;;3.50;1.90;;;;;;;-5.67;100.00;100414.00;6202986;23;20020;-59
2024/01/26 10:58:41;;;;;;;5.88;1.65;;;;;;;-5.69;100.00;100409.63;6161505;23;20032;-56
2024/01/26 11:01:14;;;;;;;4.10;1.67;;;;;;;-5.71;100.00;100412.09;6201085;23;20329;-57
2024/01/26 11:03:46;;;;;;;4.03;2.08;;;;;;;-5.68;100.00;100417.34;6177291;23;20130;-56
2024/01/26 11:06:20;;;;;;;9.40;2.10;;;;;;;-5.67;100.00;100419.06;6187669;23;20046;-59
2024/01/26 11:08:55;;;;;;;3.83;1.90;;;;;;;-5.64;100.00;100409.06;6202001;23;20091;-59
2024/01/26 11:11:38;;;;;;;3.85;1.52;;;;;;;-5.62;100.00;100406.59;6189758;23;20035;-58
2024/01/26 11:14:13;;;;;;;2.78;1.80;;;;;;;-5.63;100.00;100400.63;6204015;23;20345;-57
2024/01/26 11:16:47;;;;;;;2.92;1.98;;;;;;;-5.65;100.00;100406.44;6188944;23;20020;-58
2024/01/26 11:19:24;;;;;;;3.63;1.58;;;;;;;-5.71;100.00;100409.56;6189556;23;20016;-57
2024/01/26 11:21:54;;;;;;;2.38;1.58;;;;;;;-5.73;100.00;100398.41;6203897;23;20023;-56
2024/01/26 11:24:26;;;;;;;2.80;1.60;;;;;;;-5.72;100.00;100407.78;6189796;23;20062;-59
2024/01/26 11:26:58;;;;;;;2.85;1.55;;;;;;;-5.73;100.00;100416.22;6204478;23;20098;-59
2024/01/26 11:29:35;;;;;;;4.88;1.52;;;;;;;-5.80;100.00;100406.53;6189286;23;20964;-59
2024/01/26 11:32:17;;;;;;;7.50;2.10;;;;;;;-5.73;100.00;100413.69;6204519;23;20023;-60
2024/01/26 11:35:00;;;;;;;2.22;1.83;;;;;;;-5.73;100.00;100418.78;6188618;23;20024;-58
2024/01/26 11:37:31;;;;;;;3.92;1.88;;;;;;;-5.74;100.00;100411.94;6189790;23;20035;-58